Weather at Guangzhou Baiyun International Airport

Public forecast

Using degrees Celsius for public forecast. Weather courtesy of forecast.io.

Current aviation weather report (METAR) for Guangzhou Baiyun International Airport

2024/04/16 16:30 (retrieved 22 minutes ago)

ZGGG 161630Z 16003MPS 9999 SCT026 27/24 Q1009 NOSIG

Closest aviation forecast (TAF) to Guangzhou Baiyun International Airport

Closest forecast is Hong Kong International Airport, 73.4 nm (136.0 km) SSE.

2024/04/16 15:07 (retrieved 2 hours ago)

TAF VHHH 161400Z 1615/1721 17010KT 9999 FEW010 TX33/1706Z TN26/1622Z BECMG 1702/1704 24015KT BECMG 1710/1712 17010KT